Latest Weather Observations for Loxton

IDS60801

Issued at 5:31 pm CST Friday 22 May 2015 (issued every 30 minutes, with the page automatically refreshed every 10 minutes)

About weather observations | Map of weather stations | Latest weather observations for SA | Other Formats
Station Details ID: 024024 Name: LOXTON RESEARCH CENTRE Lat: -34.44 Lon: 140.60 Height: 30.1 m
Data from the previous 72 hours. | See also: Recent months at Loxton
Date/Time
CST
Temp
°C
App
Temp
°C
Dew
Point
Rel
Hum
%
Delta-T
°C
Wind Press
QNH
hPa
Press
MSL
hPa
Rain
since 9 am
mm
Dir
 
Spd
km/h
Gust
km/h
Spd
kts
Gust
kts
22/05:30pm 14.3 11.2 7.1 62 3.5 SSW 13 17 7 9 1029.9 1029.9 0.0
22/05:00pm 15.2 12.0 7.0 58 4.0 SSW 13 19 7 10 1029.8 1029.8 0.0
22/04:30pm 16.7 13.2 7.0 52 4.8 SSW 15 20 8 11 1029.5 1029.5 0.0
22/04:00pm 16.6 13.5 7.3 54 4.6 SSW 13 17 7 9 1029.5 1029.5 0.0
22/03:30pm 16.7 12.8 7.2 53 4.7 S 17 22 9 12 1029.3 1029.3 0.0
22/03:00pm 17.7 13.7 6.5 48 5.5 SSW 17 28 9 15 1029.2 1029.2 0.0
22/02:30pm 17.4 14.3 7.1 50 5.1 SSW 13 24 7 13 1029.2 1029.2 0.0
22/02:00pm 17.7 14.6 7.3 50 5.2 S 13 20 7 11 1029.1 1029.1 0.0
22/01:30pm 16.9 13.0 7.2 52 4.8 SSE 17 24 9 13 1029.2 1029.2 0.0
22/01:00pm 16.8 12.9 7.3 53 4.7 SSE 17 24 9 13 1029.5 1029.5 0.0
22/12:30pm 15.9 12.1 7.4 57 4.2 SSE 17 24 9 13 1029.6 1029.6 0.0
22/12:00pm 15.8 12.1 7.8 59 4.0 SSE 17 26 9 14 1029.8 1029.8 0.0
22/11:30am 15.1 11.4 7.8 61 3.6 SSE 17 26 9 14 1030.2 1030.2 0.0
22/11:00am 14.3 10.2 8.0 66 3.1 SSE 19 28 10 15 1030.5 1030.5 0.0
22/10:30am 13.4 9.4 8.1 70 2.6 SSE 19 28 10 15 1030.7 1030.7 0.0
22/10:00am 12.3 8.0 8.0 75 2.1 S 20 28 11 15 1030.9 1030.9 0.0
22/09:30am 11.5 7.3 8.4 81 1.5 S 20 30 11 16 1030.7 1030.7 0.0
22/09:00am 10.9 6.9 8.2 83 1.3 S 19 26 10 14 1030.7 1030.7 0.0
22/08:30am 10.4 7.2 8.3 87 1.0 SSW 15 22 8 12 1030.4 1030.4 0.0
22/08:00am 10.1 6.9 8.4 89 0.8 SSW 15 20 8 11 1030.2 1030.2 0.0
22/07:30am 9.7 6.8 8.2 90 0.7 SSW 13 17 7 9 1030.0 1030.0 0.0
22/07:00am 9.3 6.4 8.0 92 0.6 SW 13 20 7 11 1029.6 1029.6 0.0
22/06:30am 8.7 5.4 7.9 95 0.4 SW 15 20 8 11 1028.9 1028.9 0.0
22/06:00am 8.4 5.4 7.5 94 0.4 SW 13 20 7 11 1028.8 1028.8 0.0
22/05:30am 8.3 5.2 7.4 94 0.4 SW 13 17 7 9 1028.5 1028.5 0.0
22/05:00am 8.5 5.1 7.6 94 0.4 SSW 15 20 8 11 1028.2 1028.2 0.0
22/04:30am 8.8 5.0 7.7 93 0.5 SSW 17 22 9 12 1028.2 1028.2 0.0
22/04:00am 8.5 4.8 7.9 96 0.3 S 17 24 9 13 1028.1 1028.1 0.0
22/03:30am 8.1 3.8 7.7 97 0.2 S 20 28 11 15 1028.2 1028.2 0.0
22/03:00am 7.8 4.4 7.6 99 0.1 S 15 20 8 11 1028.2 1028.2 0.0
22/02:30am 7.6 4.9 7.2 97 0.2 SW 11 17 6 9 1028.0 1028.0 0.0
22/02:00am 7.7 4.9 7.0 95 0.3 SSW 11 15 6 8 1028.0 1028.0 0.0
22/01:30am 7.6 4.8 6.9 95 0.3 SW 11 15 6 8 1027.9 1027.9 0.0
22/01:00am 7.6 4.9 7.2 97 0.2 SW 11 15 6 8 1028.0 1028.0 0.0
22/12:30am 7.9 4.7 7.0 94 0.4 SW 13 17 7 9 1028.1 1028.1 0.0
22/12:00am 8.1 5.3 7.0 93 0.5 SW 11 15 6 8 1028.2 1028.2 0.0
 
Date/Time
CST
Temp
°C
App
Temp
°C
Dew
Point
Rel
Hum
%
Delta-T
°C
Wind Press
QNH
hPa
Press
MSL
hPa
Rain
since 9 am
mm
Dir
 
Spd
km/h
Gust
km/h
Spd
kts
Gust
kts
21/11:30pm 8.7 5.6 7.4 91 0.6 SW 13 17 7 9 1028.3 1028.3 0.0
21/11:00pm 9.2 5.8 7.5 89 0.8 SW 15 20 8 11 1028.3 1028.3 0.0
21/10:30pm 9.5 6.0 7.4 87 1.0 SW 15 20 8 11 1028.4 1028.4 0.0
21/10:00pm 10.1 6.7 7.6 84 1.2 SW 15 22 8 12 1028.2 1028.2 0.0
21/09:30pm 10.8 7.0 7.7 81 1.5 SW 17 22 9 12 1028.1 1028.1 0.0
21/09:00pm 11.1 7.7 7.6 79 1.7 SW 15 20 8 11 1028.1 1028.1 0.0
21/08:30pm 11.0 8.0 7.7 80 1.6 SW 13 20 7 11 1027.9 1027.9 0.0
21/08:00pm 10.7 7.5 6.9 77 1.8 SW 13 17 7 9 1027.5 1027.5 0.0
21/07:30pm 10.9 7.9 6.2 73 2.2 SW 11 17 6 9 1027.4 1027.4 0.0
21/07:00pm 10.8 8.0 5.3 69 2.5 SW 9 11 5 6 1027.2 1027.2 0.0
21/06:30pm 11.3 7.7 4.9 65 2.9 SSW 13 19 7 10 1026.9 1026.9 0.0
21/06:00pm 11.8 8.5 4.7 62 3.2 SSW 11 19 6 10 1026.7 1026.7 0.0
21/05:30pm 12.4 7.9 4.4 58 3.6 SSW 17 22 9 12 1026.3 1026.3 0.0
21/05:00pm 13.1 8.6 4.3 55 4.0 SSW 17 22 9 12 1026.1 1026.1 0.0
21/04:30pm 13.3 8.7 3.7 52 4.3 SSW 17 24 9 13 1026.0 1026.0 0.0
21/04:00pm 13.6 9.0 3.6 51 4.5 SSW 17 28 9 15 1025.9 1025.9 0.0
21/03:30pm 14.2 9.6 3.5 48 4.8 SSW 17 24 9 13 1025.7 1025.7 0.0
21/03:00pm 13.9 8.7 3.4 49 4.7 SSW 20 28 11 15 1025.6 1025.6 0.0
21/02:30pm 14.0 8.7 3.0 47 4.9 S 20 26 11 14 1025.5 1025.5 0.0
21/02:00pm 13.3 7.6 3.1 50 4.5 SSW 22 32 12 17 1025.6 1025.6 0.0
21/01:30pm 13.9 8.2 3.1 48 4.8 SSW 22 32 12 17 1025.6 1025.6 0.0
21/01:00pm 13.7 8.4 3.1 48 4.7 S 20 30 11 16 1025.7 1025.7 0.0
21/12:30pm 12.5 7.9 3.5 54 4.0 S 17 28 9 15 1026.1 1026.1 0.0
21/12:00pm 12.6 7.6 3.6 54 4.0 S 19 28 10 15 1026.4 1026.4 0.0
21/11:30am 12.0 7.2 4.5 60 3.4 S 19 28 10 15 1026.8 1026.8 0.0
21/11:00am 11.6 6.6 4.7 62 3.1 S 20 28 11 15 1027.0 1027.0 0.0
21/10:30am 11.3 6.6 5.1 65 2.8 S 19 30 10 16 1026.9 1026.9 0.0
21/10:00am 10.2 6.0 5.8 74 2.0 SSW 17 26 9 14 1027.0 1027.0 0.0
21/09:30am 10.6 6.4 5.8 72 2.2 SSW 17 24 9 13 1026.8 1026.8 0.0
21/09:00am 10.5 5.9 5.7 72 2.2 S 19 28 10 15 1026.3 1026.3 0.0
21/08:30am 8.1 4.6 5.6 84 1.1 SSW 13 19 7 10 1026.1 1026.1 0.0
21/08:00am 6.8 3.3 5.4 91 0.6 SW 13 19 7 10 1025.8 1025.8 0.0
21/07:30am 6.8 3.3 5.4 91 0.6 SW 13 20 7 11 1025.4 1025.4 0.0
21/07:00am 6.7 2.8 5.3 91 0.6 SSW 15 20 8 11 1025.1 1025.1 0.0
21/06:30am 6.7 3.2 5.6 93 0.5 SW 13 17 7 9 1024.7 1024.7 0.0
21/06:00am 7.4 3.6 5.8 90 0.7 SSW 15 20 8 11 1024.2 1024.2 0.0
21/05:30am 7.9 4.2 6.1 88 0.8 SSW 15 20 8 11 1023.9 1023.9 0.0
21/05:00am 8.3 5.0 6.6 89 0.8 S 13 20 7 11 1023.7 1023.7 0.0
21/04:30am 8.6 5.4 6.9 89 0.8 SSW 13 20 7 11 1023.5 1023.5 0.0
21/04:00am 8.9 5.4 7.0 88 0.9 SSW 15 22 8 12 1023.5 1023.5 0.0
21/03:30am 9.1 5.6 7.2 88 0.9 SSW 15 22 8 12 1023.4 1023.4 0.0
21/03:00am 9.4 6.0 7.5 88 0.9 SSW 15 22 8 12 1023.3 1023.3 0.0
21/02:30am 9.9 6.9 7.8 87 1.0 SSW 13 19 7 10 1023.2 1023.2 0.0
21/02:00am 10.0 7.4 7.9 87 1.0 S 11 15 6 8 1023.2 1023.2 0.0
21/01:30am 10.1 7.1 7.6 84 1.2 S 13 17 7 9 1022.9 1022.9 0.0
21/01:00am 10.3 6.9 7.8 84 1.2 S 15 19 8 10 1022.6 1022.6 0.0
21/12:30am 10.5 6.8 8.0 84 1.2 S 17 22 9 12 1022.5 1022.5 0.0
21/12:00am 10.7 7.2 8.7 87 1.0 S 17 26 9 14 1022.4 1022.4 0.0
 
Date/Time
CST
Temp
°C
App
Temp
°C
Dew
Point
Rel
Hum
%
Delta-T
°C
Wind Press
QNH
hPa
Press
MSL
hPa
Rain
since 9 am
mm
Dir
 
Spd
km/h
Gust
km/h
Spd
kts
Gust
kts
20/11:30pm 10.7 7.8 9.7 93 0.5 S 15 20 8 11 1022.3 1022.3 0.0
20/11:00pm 10.8 7.6 10.0 95 0.4 S 17 26 9 14 1022.2 1022.2 0.0
20/10:30pm 10.8 9.2 10.2 96 0.3 SSW 9 13 5 7 1022.1 1022.1 0.0
20/10:00pm 10.4 8.7 9.8 96 0.3 SSW 9 15 5 8 1022.0 1022.0 0.0
20/09:30pm 10.2 7.6 9.4 95 0.4 SW 13 20 7 11 1022.1 1022.1 0.0
20/09:00pm 9.6 7.4 7.9 89 0.8 SW 9 13 5 7 1022.0 1022.0 0.0
20/08:30pm 9.9 7.3 7.8 87 1.0 WSW 11 17 6 9 1021.7 1021.7 0.0
20/08:00pm 10.5 7.4 7.4 81 1.5 WSW 13 19 7 10 1021.4 1021.4 0.0
20/07:30pm 10.6 7.9 7.2 79 1.6 WSW 11 17 6 9 1021.2 1021.2 0.0
20/07:00pm 11.1 7.9 6.9 75 2.0 SW 13 17 7 9 1020.9 1020.9 0.0
20/06:30pm 12.0 9.1 6.5 69 2.6 WSW 11 17 6 9 1020.7 1020.7 0.0
20/06:00pm 13.0 8.8 5.8 61 3.4 WSW 17 24 9 13 1020.3 1020.3 0.0
20/05:30pm 13.9 9.2 5.1 55 4.1 SW 19 26 10 14 1019.8 1019.8 0.0
20/05:00pm 14.3 10.1 5.6 56 4.1 SW 17 24 9 13 1019.1 1019.1 0.0
20/04:30pm 14.8 10.6 5.8 55 4.3 SW 17 28 9 15 1018.8 1018.8 0.0
20/04:00pm 15.5 10.8 5.9 52 4.6 SW 20 32 11 17 1018.5 1018.5 0.0
20/03:30pm 15.5 10.9 6.4 54 4.4 WSW 20 30 11 16 1018.3 1018.3 0.0
20/03:00pm 16.3 10.7 5.2 47 5.3 SW 24 33 13 18 1017.9 1017.9 0.0
20/02:30pm 14.9 10.7 8.3 64 3.3 WSW 20 28 11 15 1017.8 1017.8 0.0
20/02:00pm 16.4 11.4 6.6 52 4.8 WSW 22 33 12 18 1017.5 1017.5 0.0
20/01:30pm 15.6 12.5 7.3 57 4.1 WSW 13 22 7 12 1017.7 1017.7 0.0
20/01:00pm 15.9 13.2 8.9 63 3.6 W 13 20 7 11 1017.9 1017.9 0.0
20/12:30pm 15.6 11.8 9.2 65 3.3 WSW 19 33 10 18 1018.0 1018.0 0.0
20/12:00pm 15.2 10.9 7.8 61 3.7 SW 20 26 11 14 1018.3 1018.3 0.0
20/11:30am 15.3 10.7 8.1 62 3.6 WSW 22 30 12 16 1018.6 1018.6 0.0
20/11:00am 15.0 10.4 8.0 63 3.5 WSW 22 32 12 17 1018.8 1018.8 0.0
20/10:30am 14.9 10.9 9.0 68 3.0 SW 20 30 11 16 1018.7 1018.7 0.0
20/10:00am 14.3 10.1 9.8 74 2.3 SW 22 30 12 16 1018.4 1018.4 0.0
20/09:30am 13.9 11.1 10.0 77 2.0 WSW 15 20 8 11 1017.9 1017.9 0.0
20/09:00am 13.4 10.7 10.3 81 1.6 WSW 15 20 8 11 1017.7 1017.7 0.2
20/08:30am 12.4 9.5 9.6 83 1.4 WSW 15 19 8 10 1017.2 1017.2 0.2
20/08:00am 11.9 9.4 9.7 86 1.1 WSW 13 20 7 11 1016.7 1016.7 0.2
20/07:30am 11.4 9.3 9.8 90 0.8 WNW 11 15 6 8 1016.4 1016.4 0.2
20/07:00am 11.6 9.6 10.0 90 0.8 W 11 15 6 8 1015.5 1015.5 0.2
20/06:30am 11.8 9.4 10.0 89 0.9 WSW 13 17 7 9 1015.0 1015.0 0.2
20/06:00am 11.6 10.4 10.4 92 0.6 W 7 11 4 6 1014.7 1014.7 0.2
20/05:30am 12.1 10.2 10.6 90 0.8 W 11 17 6 9 1014.4 1014.4 0.2
20/05:00am 12.6 10.4 10.7 88 1.0 W 13 17 7 9 1013.9 1013.9 0.2
20/04:30am 13.0 11.2 10.9 87 1.1 W 11 17 6 9 1013.4 1013.4 0.2
20/04:00am 13.2 11.9 11.1 87 1.1 W 9 13 5 7 1013.3 1013.3 0.2
20/03:30am 13.7 12.0 11.2 85 1.3 WNW 11 17 6 9 1013.1 1013.1 0.2
20/03:00am 14.1 12.0 11.3 83 1.5 WNW 13 17 7 9 1013.0 1013.0 0.2
20/02:30am 14.4 12.3 11.2 81 1.7 WNW 13 22 7 12 1012.9 1012.9 0.2
20/02:00am 14.6 12.6 11.4 81 1.7 WNW 13 20 7 11 1012.6 1012.7 0.2
20/01:30am 14.7 12.3 11.3 80 1.8 WNW 15 24 8 13 1012.5 1012.5 0.2
20/01:00am 14.7 12.6 11.3 80 1.8 WNW 13 19 7 10 1012.4 1012.4 0.2
20/12:30am 14.8 12.7 11.2 79 1.9 NW 13 20 7 11 1012.2 1012.2 0.2
20/12:00am 14.8 12.3 11.2 79 1.9 WNW 15 22 8 12 1012.0 1012.0 0.2
 
Date/Time
CST
Temp
°C
App
Temp
°C
Dew
Point
Rel
Hum
%
Delta-T
°C
Wind Press
QNH
hPa
Press
MSL
hPa
Rain
since 9 am
mm
Dir
 
Spd
km/h
Gust
km/h
Spd
kts
Gust
kts
19/11:30pm 14.9 12.4 11.2 78 2.0 WNW 15 24 8 13 1012.0 1012.0 0.2
19/11:00pm 15.4 12.6 11.3 76 2.2 WNW 17 24 9 13 1011.8 1011.8 0.2
19/10:30pm 15.7 12.6 11.6 76 2.2 WNW 19 28 10 15 1011.7 1011.7 0.2
19/10:00pm 16.0 13.3 11.6 75 2.4 WNW 17 24 9 13 1011.8 1011.8 0.2
19/09:30pm 16.5 13.4 11.5 72 2.7 WNW 19 26 10 14 1011.5 1011.5 0.2
19/09:00pm 17.4 13.9 10.9 65 3.5 W 20 30 11 16 1011.4 1011.4 0.2
19/08:30pm 17.9 14.4 10.2 60 4.1 WNW 19 28 10 15 1011.0 1011.0 0.2
19/08:00pm 17.8 14.6 10.1 60 4.1 WNW 17 24 9 13 1010.6 1010.6 0.2
19/07:30pm 18.7 15.4 9.6 55 4.8 WNW 17 26 9 14 1010.4 1010.4 0.2
19/07:00pm 18.3 15.8 9.6 57 4.6 WNW 13 17 7 9 1010.1 1010.1 0.2
19/06:30pm 18.3 16.0 9.1 55 4.8 WNW 11 17 6 9 1009.7 1009.7 0.2
19/06:00pm 19.3 15.3 8.3 49 5.7 WNW 19 26 10 14 1009.2 1009.2 0.2

Other Formats:

Comma delimited format used in spreadsheet applications
http://www.bom.gov.au/fwo/IDS60801/IDS60801.94682.axf

JavaScript Object Notation format (JSON) in row-major order
http://www.bom.gov.au/fwo/IDS60801/IDS60801.94682.json